Decoded Metar for KRCM ( in _UNIDENTIFIED) (IATA:N/A) | Meteo·Mobile Aviation Weather
aviador You're here:

KRCM Decoded Metar

in _UNIDENTIFIED
Report Time2019-09-23 09:35:00
UTC Time2019-09-23 09:27:59
Flight Rules lifr LIFR
WindCalm
Visibility805 m
Phenomena:Fog
Clouds:N/A
Expected CloudBase > 400 ft AGL from Temp-Dew spread
Ceiling500 ft
Temp15°C (ISA +2)
Dew Point14°C (94% RH)
QNH1018 hPa
Density Alt1,037 ft
Elevation801 ft
Report Wrong Elevation
Raw Report
KRCM 230935Z AUTO 00000KT 1/2SM FG VV005 15/14 A3006 RMK AO2=

Extra information for KRCM:More info

Metar Taf Metar & Taf Last 4 Metars F.Rules Stats Wind Profile Meteogram Temp Stats Metar ALERT Operation Metar Decoded Social comments